Time,TemperatureF,DewpointF,PressureIn,WindDirection,WindDirectionDegrees,WindSpeedMPH,WindSpeedGustMPH,Humidity,HourlyPrecipIn,Conditions,Clouds,dailyrainin,SoftwareType,DateUTC
2013-01-09 00:07:00,32.1,21.3,30.24,SSW,205,1.0,2.0,64,0.00,,,0.00,Wunderground v.1.15,2013-01-09 05:07:00,
2013-01-09 00:12:00,31.9,21.1,30.24,SSW,205,0.0,0.0,64,0.00,,,0.00,Wunderground v.1.15,2013-01-09 05:12:00,
2013-01-09 00:17:00,31.9,21.1,30.25,SSW,205,0.0,0.0,64,0.00,,,0.00,Wunderground v.1.15,2013-01-09 05:17:00,
2013-01-09 00:22:00,31.9,21.1,30.25,SSW,205,1.0,5.0,64,0.00,,,0.00,Wunderground v.1.15,2013-01-09 05:22:00,
2013-01-09 00:32:00,31.9,21.1,30.25,SSW,205,1.0,1.0,64,0.00,,,0.00,Wunderground v.1.15,2013-01-09 05:32:00,
2013-01-09 00:37:00,-999.9,-99.9,30.25,North,32767,-999.0,1.0,255,-99.99,,,0.00,Wunderground v.1.15,2013-01-09 05:37:00,
2013-01-09 00:47:00,-999.9,-99.9,30.23,North,32767,-999.0,0.0,255,-99.99,,,0.00,Wunderground v.1.15,2013-01-09 05:47:00,
2013-01-09 00:52:00,-999.9,-99.9,30.23,SSW,205,2.0,2.0,255,0.00,,,0.00,Wunderground v.1.15,2013-01-09 05:52:00,
2013-01-09 01:02:00,-999.9,-99.9,30.23,North,32767,-999.0,0.0,255,-99.99,,,0.00,Wunderground v.1.15,2013-01-09 06:02:00,
2013-01-09 01:12:00,-999.9,-99.9,30.23,North,32767,-999.0,0.0,255,-99.99,,,0.00,Wunderground v.1.15,2013-01-09 06:12:00,
2013-01-09 01:22:00,31.6,20.4,30.22,SSW,205,1.0,2.0,63,0.00,,,0.00,Wunderground v.1.15,2013-01-09 06:22:00,
2013-01-09 01:32:00,31.8,20.6,30.23,South,191,3.0,3.0,63,0.00,,,0.00,Wunderground v.1.15,2013-01-09 06:32:00,
2013-01-09 01:37:00,31.8,20.3,30.23,SSW,199,3.0,3.0,62,0.00,,,0.00,Wunderground v.1.15,2013-01-09 06:37:00,
2013-01-09 01:47:00,31.9,20.3,30.23,SSW,203,3.0,3.0,62,0.00,,,0.00,Wunderground v.1.15,2013-01-09 06:47:00,
2013-01-09 01:52:00,32.1,20.5,30.23,SSE,165,4.0,4.0,62,0.00,,,0.00,Wunderground v.1.15,2013-01-09 06:52:00,
2013-01-09 02:02:00,31.9,20.3,30.22,SSW,205,3.0,3.0,62,0.00,,,0.00,Wunderground v.1.15,2013-01-09 07:02:00,
2013-01-09 02:07:00,31.9,20.3,30.22,SSW,212,2.0,3.0,62,0.00,,,0.00,Wunderground v.1.15,2013-01-09 07:07:00,
2013-01-09 02:17:00,31.8,20.6,30.22,SSW,209,2.0,2.0,63,0.00,,,0.00,Wunderground v.1.15,2013-01-09 07:17:00,
2013-01-09 02:23:00,31.6,20.4,30.22,SSW,209,2.0,2.0,63,0.00,,,0.00,Wunderground v.1.15,2013-01-09 07:23:00,
2013-01-09 02:32:00,31.5,20.3,30.23,SSW,195,2.0,2.0,63,0.00,,,0.00,Wunderground v.1.15,2013-01-09 07:32:00,
2013-01-09 02:37:00,31.5,20.7,30.23,SSW,198,2.0,2.0,64,0.00,,,0.00,Wunderground v.1.15,2013-01-09 07:37:00,
2013-01-09 02:47:00,31.5,20.7,30.23,SSW,192,1.0,3.0,64,0.00,,,0.00,Wunderground v.1.15,2013-01-09 07:47:00,
2013-01-09 02:52:00,31.6,20.8,30.23,South,189,2.0,3.0,64,0.00,,,0.00,Wunderground v.1.15,2013-01-09 07:52:00,
2013-01-09 03:02:00,31.9,21.1,30.22,South,186,3.0,3.0,64,0.00,,,0.00,Wunderground v.1.15,2013-01-09 08:02:00,
2013-01-09 03:07:00,32.1,21.3,30.22,South,186,2.0,3.0,64,0.00,,,0.00,Wunderground v.1.15,2013-01-09 08:07:00,
2013-01-09 03:17:00,32.2,21.4,30.22,South,185,2.0,2.0,64,0.00,,,0.00,Wunderground v.1.15,2013-01-09 08:17:00,
2013-01-09 03:22:00,32.2,21.4,30.22,SSE,158,3.0,3.0,64,0.00,,,0.00,Wunderground v.1.15,2013-01-09 08:22:00,
2013-01-09 03:32:00,32.1,21.3,30.20,SSW,198,3.0,4.0,64,0.00,,,0.00,Wunderground v.1.15,2013-01-09 08:32:00,
2013-01-09 03:37:00,32.2,21.4,30.20,South,186,3.0,4.0,64,0.00,,,0.00,Wunderground v.1.15,2013-01-09 08:37:00,
2013-01-09 03:47:00,32.1,21.7,30.19,South,186,2.0,3.0,65,0.00,,,0.00,Wunderground v.1.15,2013-01-09 08:47:00,
2013-01-09 03:52:00,32.1,21.7,30.19,South,191,2.0,2.0,65,0.00,,,0.00,Wunderground v.1.15,2013-01-09 08:52:00,
2013-01-09 04:02:00,32.1,21.7,30.19,South,191,2.0,5.0,65,0.00,,,0.00,Wunderground v.1.15,2013-01-09 09:02:00,
2013-01-09 04:12:00,32.2,21.7,30.19,South,189,3.0,3.0,65,0.00,,,0.00,Wunderground v.1.15,2013-01-09 09:12:00,
2013-01-09 04:17:00,32.2,21.7,30.19,South,174,2.0,6.0,65,0.00,,,0.00,Wunderground v.1.15,2013-01-09 09:17:00,
2013-01-09 04:22:00,32.4,21.9,30.19,South,176,3.0,3.0,65,0.00,,,0.00,Wunderground v.1.15,2013-01-09 09:22:00,
2013-01-09 04:32:00,32.2,22.1,30.18,South,188,3.0,5.0,66,0.00,,,0.00,Wunderground v.1.15,2013-01-09 09:32:00,
2013-01-09 04:37:00,32.1,22.0,30.18,South,188,2.0,5.0,66,0.00,,,0.00,Wunderground v.1.15,2013-01-09 09:37:00,
2013-01-09 04:47:00,32.1,22.4,30.18,South,189,2.0,3.0,67,0.00,,,0.00,Wunderground v.1.15,2013-01-09 09:47:00,
2013-01-09 04:52:00,32.4,22.7,30.18,SSE,167,3.0,3.0,67,0.00,,,0.00,Wunderground v.1.15,2013-01-09 09:52:00,
2013-01-09 05:02:00,32.7,22.9,30.17,South,179,2.0,5.0,67,0.00,,,0.00,Wunderground v.1.15,2013-01-09 10:02:00,
2013-01-09 05:12:00,32.8,23.0,30.17,South,188,3.0,3.0,67,0.00,,,0.00,Wunderground v.1.15,2013-01-09 10:12:00,
2013-01-09 05:22:00,32.8,23.0,30.17,South,174,3.0,3.0,67,0.00,,,0.00,Wunderground v.1.15,2013-01-09 10:22:00,
2013-01-09 05:32:00,32.8,23.0,30.17,South,182,3.0,3.0,67,0.00,,,0.00,Wunderground v.1.15,2013-01-09 10:32:00,
2013-01-09 05:37:00,32.9,23.1,30.17,South,188,3.0,4.0,67,0.00,,,0.00,Wunderground v.1.15,2013-01-09 10:37:00,
2013-01-09 05:47:00,32.9,23.1,30.17,South,186,3.0,3.0,67,0.00,,,0.00,Wunderground v.1.15,2013-01-09 10:47:00,
2013-01-09 05:52:00,32.9,23.1,30.17,South,178,3.0,3.0,67,0.00,,,0.00,Wunderground v.1.15,2013-01-09 10:52:00,
2013-01-09 06:02:00,32.9,23.1,30.16,South,188,4.0,4.0,67,0.00,,,0.00,Wunderground v.1.15,2013-01-09 11:02:00,
2013-01-09 06:12:00,32.9,23.1,30.16,SSE,165,3.0,4.0,67,0.00,,,0.00,Wunderground v.1.15,2013-01-09 11:12:00,
2013-01-09 06:22:00,32.8,23.4,30.16,South,181,3.0,5.0,68,0.00,,,0.00,Wunderground v.1.15,2013-01-09 11:22:00,
2013-01-09 06:32:00,32.8,23.4,30.16,South,191,3.0,3.0,68,0.00,,,0.00,Wunderground v.1.15,2013-01-09 11:32:00,
2013-01-09 06:37:00,32.8,23.4,30.16,South,188,3.0,3.0,68,0.00,,,0.00,Wunderground v.1.15,2013-01-09 11:37:00,
2013-01-09 06:47:00,32.7,23.6,30.15,South,176,4.0,7.0,69,0.00,,,0.00,Wunderground v.1.15,2013-01-09 11:47:00,
2013-01-09 06:53:00,32.5,23.5,30.15,SSW,208,4.0,4.0,69,0.00,,,0.00,Wunderground v.1.15,2013-01-09 11:53:00,
2013-01-09 07:02:00,32.5,23.5,30.16,South,172,3.0,3.0,69,0.00,,,0.00,Wunderground v.1.15,2013-01-09 12:02:00,
2013-01-09 07:12:00,32.5,23.8,30.16,South,181,2.0,5.0,70,0.00,,,0.00,Wunderground v.1.15,2013-01-09 12:12:00,
2013-01-09 07:22:00,32.5,23.8,30.15,South,184,2.0,2.0,70,0.00,,,0.00,Wunderground v.1.15,2013-01-09 12:22:00,
2013-01-09 07:32:00,32.5,23.8,30.14,South,174,7.0,7.0,70,0.00,,,0.00,Wunderground v.1.15,2013-01-09 12:32:00,
2013-01-09 07:37:00,32.7,24.0,30.14,SSW,192,3.0,7.0,70,0.00,,,0.00,Wunderground v.1.15,2013-01-09 12:37:00,
2013-01-09 07:47:00,32.7,24.0,30.12,SE,128,4.0,9.0,70,0.00,,,0.00,Wunderground v.1.15,2013-01-09 12:47:00,
2013-01-09 07:52:00,32.7,24.0,30.12,SSE,162,3.0,3.0,70,0.00,,,0.00,Wunderground v.1.15,2013-01-09 12:52:00,
2013-01-09 08:02:00,32.7,24.0,30.10,South,176,4.0,6.0,70,0.00,,,0.00,Wunderground v.1.15,2013-01-09 13:02:00,
2013-01-09 08:12:00,32.9,24.2,30.10,South,172,5.0,5.0,70,0.00,,,0.00,Wunderground v.1.15,2013-01-09 13:12:00,
2013-01-09 08:22:00,33.2,24.5,30.08,South,175,6.0,6.0,70,0.00,,,0.00,Wunderground v.1.15,2013-01-09 13:22:00,
2013-01-09 08:32:00,33.8,25.0,30.07,SSW,212,5.0,5.0,70,0.00,,,0.00,Wunderground v.1.15,2013-01-09 13:32:00,
2013-01-09 08:37:00,34.1,25.0,30.07,SSW,203,3.0,6.0,69,0.00,,,0.00,Wunderground v.1.15,2013-01-09 13:37:00,
2013-01-09 08:47:00,34.4,24.9,30.07,SSW,210,5.0,5.0,68,0.00,,,0.00,Wunderground v.1.15,2013-01-09 13:47:00,
2013-01-09 08:52:00,34.6,25.1,30.07,SSW,208,4.0,4.0,68,0.00,,,0.00,Wunderground v.1.15,2013-01-09 13:52:00,
2013-01-09 09:02:00,34.6,25.1,30.09,South,189,4.0,7.0,68,0.00,,,0.00,Wunderground v.1.15,2013-01-09 14:02:00,
2013-01-09 09:12:00,34.6,25.1,30.09,SSW,196,4.0,5.0,68,0.00,,,0.00,Wunderground v.1.15,2013-01-09 14:12:00,
2013-01-09 09:22:00,34.9,25.0,30.08,South,189,4.0,5.0,67,0.00,,,0.00,Wunderground v.1.15,2013-01-09 14:22:00,
2013-01-09 09:32:00,35.0,25.1,30.08,SSW,208,3.0,6.0,67,0.00,,,0.00,Wunderground v.1.15,2013-01-09 14:32:00,
2013-01-09 09:37:00,35.3,25.1,30.08,SSW,212,4.0,6.0,66,0.00,,,0.00,Wunderground v.1.15,2013-01-09 14:37:00,
2013-01-09 09:47:00,35.8,25.2,30.06,South,188,5.0,5.0,65,0.00,,,0.00,Wunderground v.1.15,2013-01-09 14:47:00,
2013-01-09 09:52:00,36.0,25.4,30.06,South,188,4.0,8.0,65,0.00,,,0.00,Wunderground v.1.15,2013-01-09 14:52:00,
2013-01-09 10:02:00,36.6,25.6,30.06,SSW,206,3.0,6.0,64,0.00,,,0.00,Wunderground v.1.15,2013-01-09 15:02:00,
2013-01-09 10:07:00,37.0,25.6,30.06,South,191,4.0,6.0,63,0.00,,,0.00,Wunderground v.1.15,2013-01-09 15:07:00,
2013-01-09 10:17:00,37.9,25.6,30.04,SW,215,5.0,7.0,61,0.00,,,0.00,Wunderground v.1.15,2013-01-09 15:17:00,
2013-01-09 10:22:00,38.2,25.5,30.04,SSW,209,6.0,6.0,60,0.00,,,0.00,Wunderground v.1.15,2013-01-09 15:22:00,
2013-01-09 10:32:00,38.8,25.7,30.03,South,181,7.0,7.0,59,0.00,,,0.00,Wunderground v.1.15,2013-01-09 15:32:00,
2013-01-09 10:37:00,39.3,25.7,30.03,SSW,193,6.0,7.0,58,0.00,,,0.00,Wunderground v.1.15,2013-01-09 15:37:00,
2013-01-09 10:47:00,39.9,25.9,29.99,South,174,5.0,7.0,57,0.00,,,0.00,Wunderground v.1.15,2013-01-09 15:47:00,
2013-01-09 10:52:00,40.3,26.3,29.99,SSW,210,6.0,11.0,57,0.00,,,0.00,Wunderground v.1.15,2013-01-09 15:52:00,
2013-01-09 11:02:00,41.1,26.6,29.98,SSW,193,7.0,7.0,56,0.00,,,0.00,Wunderground v.1.15,2013-01-09 16:02:00,
2013-01-09 11:07:00,41.2,26.7,29.98,South,179,6.0,7.0,56,0.00,,,0.00,Wunderground v.1.15,2013-01-09 16:07:00,
2013-01-09 11:12:00,41.5,27.0,29.98,SSW,195,5.0,7.0,56,0.00,,,0.00,Wunderground v.1.15,2013-01-09 16:12:00,
2013-01-09 11:22:00,41.9,27.3,29.98,SSW,196,6.0,6.0,56,0.00,,,0.00,Wunderground v.1.15,2013-01-09 16:22:00,
2013-01-09 11:32:00,42.6,27.5,29.95,South,179,7.0,8.0,55,0.00,,,0.00,Wunderground v.1.15,2013-01-09 16:32:00,
2013-01-09 11:37:00,43.1,27.6,29.95,SW,216,6.0,8.0,54,0.00,,,0.00,Wunderground v.1.15,2013-01-09 16:37:00,
2013-01-09 11:47:00,44.2,28.1,29.95,SSW,195,3.0,5.0,53,0.00,,,0.00,Wunderground v.1.15,2013-01-09 16:47:00,
2013-01-09 11:52:00,44.9,28.3,29.95,South,186,3.0,3.0,52,0.00,,,0.00,Wunderground v.1.15,2013-01-09 16:52:00,
2013-01-09 12:02:00,45.2,28.6,29.94,South,188,4.0,5.0,52,0.00,,,0.00,Wunderground v.1.15,2013-01-09 17:02:00,
2013-01-09 12:07:00,45.4,28.8,29.94,West,274,4.0,5.0,52,0.00,,,0.00,Wunderground v.1.15,2013-01-09 17:07:00,
2013-01-09 12:17:00,45.7,29.1,29.92,South,171,5.0,7.0,52,0.00,,,0.00,Wunderground v.1.15,2013-01-09 17:17:00,
2013-01-09 12:23:00,46.0,29.3,29.92,SSW,203,4.0,5.0,52,0.00,,,0.00,Wunderground v.1.15,2013-01-09 17:23:00,
2013-01-09 12:32:00,46.4,29.7,29.91,SSW,192,4.0,5.0,52,0.00,,,0.00,Wunderground v.1.15,2013-01-09 17:32:00,
2013-01-09 12:37:00,46.4,29.7,29.91,SSW,202,2.0,2.0,52,0.00,,,0.00,Wunderground v.1.15,2013-01-09 17:37:00,
2013-01-09 12:47:00,46.4,30.2,29.91,SW,234,0.0,0.0,53,0.00,,,0.00,Wunderground v.1.15,2013-01-09 17:47:00,
2013-01-09 12:52:00,46.8,30.6,29.91,WSW,239,0.0,0.0,53,0.00,,,0.00,Wunderground v.1.15,2013-01-09 17:52:00,
2013-01-09 13:02:00,47.4,30.6,29.90,SW,226,0.0,3.0,52,0.00,,,0.00,Wunderground v.1.15,2013-01-09 18:02:00,
2013-01-09 13:12:00,48.2,33.2,29.90,WNW,288,2.0,3.0,56,0.00,,,0.00,Wunderground v.1.15,2013-01-09 18:12:00,
2013-01-09 13:23:00,48.8,33.8,29.90,WSW,256,4.0,4.0,56,0.00,,,0.00,Wunderground v.1.15,2013-01-09 18:23:00,
2013-01-09 13:32:00,48.5,33.5,29.89,SW,233,4.0,6.0,56,0.00,,,0.00,Wunderground v.1.15,2013-01-09 18:32:00,
2013-01-09 13:38:00,48.3,33.3,29.89,West,272,5.0,5.0,56,0.00,,,0.00,Wunderground v.1.15,2013-01-09 18:38:00,
2013-01-09 13:42:00,48.2,33.7,29.89,SW,222,4.0,10.0,57,0.00,,,0.00,Wunderground v.1.15,2013-01-09 18:42:00,
2013-01-09 13:47:00,48.0,33.9,29.90,West,280,5.0,10.0,58,0.00,,,0.00,Wunderground v.1.15,2013-01-09 18:47:00,
2013-01-09 13:53:00,47.7,33.6,29.90,SSE,154,5.0,5.0,58,0.00,,,0.00,Wunderground v.1.15,2013-01-09 18:53:00,
2013-01-09 13:57:00,47.6,33.5,29.90,SSW,209,5.0,10.0,58,0.00,,,0.00,Wunderground v.1.15,2013-01-09 18:57:00,
2013-01-09 14:02:00,47.6,33.5,29.90,WSW,243,6.0,6.0,58,0.00,,,0.00,Wunderground v.1.15,2013-01-09 19:02:00,
2013-01-09 14:08:00,47.4,33.4,29.90,WSW,247,6.0,6.0,58,0.00,,,0.00,Wunderground v.1.15,2013-01-09 19:08:00,
2013-01-09 14:12:00,47.4,32.9,29.90,West,261,5.0,5.0,57,0.00,,,0.00,Wunderground v.1.15,2013-01-09 19:12:00,
2013-01-09 14:22:00,47.3,32.8,29.90,WSW,239,4.0,4.0,57,0.00,,,0.00,Wunderground v.1.15,2013-01-09 19:22:00,
2013-01-09 14:32:00,47.0,32.5,29.91,NNW,336,5.0,6.0,57,0.00,,,0.00,Wunderground v.1.15,2013-01-09 19:32:00,
2013-01-09 14:37:00,46.7,32.3,29.91,WSW,237,4.0,6.0,57,0.00,,,0.00,Wunderground v.1.15,2013-01-09 19:37:00,
2013-01-09 14:47:00,46.2,32.2,29.92,WSW,237,5.0,7.0,58,0.00,,,0.00,Wunderground v.1.15,2013-01-09 19:47:00,
2013-01-09 14:52:00,45.8,32.3,29.92,WSW,241,6.0,6.0,59,0.00,,,0.00,Wunderground v.1.15,2013-01-09 19:52:00,
2013-01-09 15:02:00,45.4,32.3,29.92,WSW,247,6.0,7.0,60,0.00,,,0.00,Wunderground v.1.15,2013-01-09 20:02:00,
2013-01-09 15:07:00,45.1,32.0,29.92,SSW,209,5.0,7.0,60,0.00,,,0.00,Wunderground v.1.15,2013-01-09 20:07:00,
2013-01-09 15:12:00,44.9,31.8,29.92,SW,227,5.0,10.0,60,0.00,,,0.00,Wunderground v.1.15,2013-01-09 20:12:00,
2013-01-09 15:22:00,44.8,31.3,29.92,WSW,237,4.0,4.0,59,0.00,,,0.00,Wunderground v.1.15,2013-01-09 20:22:00,
2013-01-09 15:32:00,44.6,31.6,29.93,West,260,4.0,6.0,60,0.00,,,0.00,Wunderground v.1.15,2013-01-09 20:32:00,
2013-01-09 15:37:00,44.3,31.3,29.93,West,260,5.0,6.0,60,0.00,,,0.00,Wunderground v.1.15,2013-01-09 20:37:00,
2013-01-09 15:47:00,44.1,31.5,29.94,West,265,6.0,11.0,61,0.00,,,0.00,Wunderground v.1.15,2013-01-09 20:47:00,
2013-01-09 15:53:00,43.9,31.3,29.94,WSW,248,6.0,6.0,61,0.00,,,0.00,Wunderground v.1.15,2013-01-09 20:53:00,
2013-01-09 16:02:00,43.3,31.5,29.95,WNW,284,5.0,6.0,63,0.00,,,0.00,Wunderground v.1.15,2013-01-09 21:02:00,
2013-01-09 16:07:00,43.2,31.4,29.95,West,278,4.0,6.0,63,0.00,,,0.00,Wunderground v.1.15,2013-01-09 21:07:00,
2013-01-09 16:12:00,42.9,31.6,29.95,WSW,237,4.0,5.0,64,0.00,,,0.00,Wunderground v.1.15,2013-01-09 21:12:00,
2013-01-09 16:22:00,42.5,31.6,29.95,North,356,4.0,10.0,65,0.00,,,0.00,Wunderground v.1.15,2013-01-09 21:22:00,
2013-01-09 16:32:00,42.2,31.6,29.97,NW,323,5.0,5.0,66,0.00,,,0.00,Wunderground v.1.15,2013-01-09 21:32:00,
2013-01-09 16:37:00,41.9,31.7,29.97,WSW,239,5.0,5.0,67,0.00,,,0.00,Wunderground v.1.15,2013-01-09 21:37:00,
2013-01-09 16:47:00,41.5,31.7,29.97,WSW,244,4.0,5.0,68,0.00,,,0.00,Wunderground v.1.15,2013-01-09 21:47:00,
2013-01-09 16:52:00,41.3,31.5,29.97,WSW,250,4.0,7.0,68,0.00,,,0.00,Wunderground v.1.15,2013-01-09 21:52:00,
2013-01-09 17:02:00,41.3,31.2,29.99,NW,319,4.0,4.0,67,0.00,,,0.00,Wunderground v.1.15,2013-01-09 22:02:00,
2013-01-09 17:12:00,41.3,30.8,29.99,WSW,240,4.0,4.0,66,0.00,,,0.00,Wunderground v.1.15,2013-01-09 22:12:00,
2013-01-09 17:22:00,41.1,30.6,30.00,SW,216,3.0,5.0,66,0.00,,,0.00,Wunderground v.1.15,2013-01-09 22:22:00,
2013-01-09 17:32:00,41.1,31.0,30.01,WSW,247,3.0,3.0,67,0.00,,,0.00,Wunderground v.1.15,2013-01-09 22:32:00,
2013-01-09 17:37:00,41.1,31.0,30.01,SW,219,3.0,3.0,67,0.00,,,0.00,Wunderground v.1.15,2013-01-09 22:37:00,
2013-01-09 17:47:00,40.9,30.8,30.02,West,281,3.0,3.0,67,0.00,,,0.00,Wunderground v.1.15,2013-01-09 22:47:00,
2013-01-09 17:52:00,41.1,31.0,30.02,SW,226,3.0,3.0,67,0.00,,,0.00,Wunderground v.1.15,2013-01-09 22:52:00,
2013-01-09 18:02:00,41.1,30.6,30.04,WSW,251,3.0,3.0,66,0.00,,,0.00,Wunderground v.1.15,2013-01-09 23:02:00,
2013-01-09 18:07:00,41.1,31.0,30.04,West,264,3.0,3.0,67,0.00,,,0.00,Wunderground v.1.15,2013-01-09 23:07:00,
2013-01-09 18:17:00,41.1,31.0,30.05,SW,227,3.0,5.0,67,0.00,,,0.00,Wunderground v.1.15,2013-01-09 23:17:00,
2013-01-09 18:22:00,41.1,31.0,30.05,WSW,248,3.0,5.0,67,0.00,,,0.00,Wunderground v.1.15,2013-01-09 23:22:00,
2013-01-09 18:32:00,41.1,30.6,30.06,WSW,258,3.0,3.0,66,0.00,,,0.00,Wunderground v.1.15,2013-01-09 23:32:00,
2013-01-09 18:37:00,41.1,31.0,30.06,SW,233,2.0,3.0,67,0.00,,,0.00,Wunderground v.1.15,2013-01-09 23:37:00,
2013-01-09 18:47:00,41.1,30.6,30.06,WSW,237,3.0,5.0,66,0.00,,,0.00,Wunderground v.1.15,2013-01-09 23:47:00,
2013-01-09 18:52:00,41.1,30.6,30.06,West,263,3.0,7.0,66,0.00,,,0.00,Wunderground v.1.15,2013-01-09 23:52:00,
2013-01-09 19:02:00,41.3,30.4,30.06,West,270,4.0,6.0,65,0.00,,,0.00,Wunderground v.1.15,2013-01-10 00:02:00,
2013-01-09 19:07:00,41.2,30.3,30.06,WSW,247,3.0,6.0,65,0.00,,,0.00,Wunderground v.1.15,2013-01-10 00:07:00,
2013-01-09 19:17:00,41.1,30.6,30.06,WNW,282,3.0,10.0,66,0.00,,,0.00,Wunderground v.1.15,2013-01-10 00:17:00,
2013-01-09 19:22:00,40.9,30.4,30.06,West,260,3.0,3.0,66,0.00,,,0.00,Wunderground v.1.15,2013-01-10 00:22:00,
2013-01-09 19:32:00,40.9,30.4,30.07,SW,229,3.0,6.0,66,0.00,,,0.00,Wunderground v.1.15,2013-01-10 00:32:00,
2013-01-09 19:37:00,41.1,30.2,30.07,SW,236,4.0,6.0,65,0.00,,,0.00,Wunderground v.1.15,2013-01-10 00:37:00,
2013-01-09 19:47:00,41.2,30.3,30.06,West,271,4.0,4.0,65,0.00,,,0.00,Wunderground v.1.15,2013-01-10 00:47:00,
2013-01-09 19:52:00,41.1,30.2,30.06,West,268,3.0,3.0,65,0.00,,,0.00,Wunderground v.1.15,2013-01-10 00:52:00,
2013-01-09 20:02:00,41.1,30.2,30.06,WSW,239,4.0,4.0,65,0.00,,,0.00,Wunderground v.1.15,2013-01-10 01:02:00,
2013-01-09 20:07:00,41.1,30.2,30.06,West,260,4.0,4.0,65,0.00,,,0.00,Wunderground v.1.15,2013-01-10 01:07:00,
2013-01-09 20:17:00,41.1,30.2,30.07,West,271,4.0,5.0,65,0.00,,,0.00,Wunderground v.1.15,2013-01-10 01:17:00,
2013-01-09 20:22:00,41.1,30.2,30.07,West,280,4.0,4.0,65,0.00,,,0.00,Wunderground v.1.15,2013-01-10 01:22:00,
2013-01-09 20:32:00,41.2,29.9,30.09,West,260,3.0,4.0,64,0.00,,,0.00,Wunderground v.1.15,2013-01-10 01:32:00,
2013-01-09 20:37:00,41.2,29.9,30.09,West,274,3.0,4.0,64,0.00,,,0.00,Wunderground v.1.15,2013-01-10 01:37:00,
2013-01-09 20:47:00,41.3,29.6,30.10,SW,232,5.0,6.0,63,0.00,,,0.00,Wunderground v.1.15,2013-01-10 01:47:00,
2013-01-09 20:52:00,41.5,29.4,30.10,NW,308,5.0,7.0,62,0.00,,,0.00,Wunderground v.1.15,2013-01-10 01:52:00,
2013-01-09 21:02:00,41.6,29.1,30.12,WNW,299,5.0,5.0,61,0.00,,,0.00,Wunderground v.1.15,2013-01-10 02:02:00,
2013-01-09 21:07:00,41.5,29.0,30.12,WNW,291,6.0,6.0,61,0.00,,,0.00,Wunderground v.1.15,2013-01-10 02:07:00,
2013-01-09 21:12:00,41.5,29.0,30.12,West,270,5.0,5.0,61,0.00,,,0.00,Wunderground v.1.15,2013-01-10 02:12:00,
2013-01-09 21:22:00,41.2,28.8,30.14,WNW,295,6.0,6.0,61,0.00,,,0.00,Wunderground v.1.15,2013-01-10 02:22:00,
2013-01-09 21:32:00,41.1,27.4,30.16,NW,322,6.0,6.0,58,0.00,,,0.00,Wunderground v.1.15,2013-01-10 02:32:00,
2013-01-09 21:37:00,41.2,27.1,30.16,WNW,284,7.0,7.0,57,0.00,,,0.00,Wunderground v.1.15,2013-01-10 02:37:00,
2013-01-09 21:47:00,41.2,27.1,30.18,WSW,248,7.0,7.0,57,0.00,,,0.00,Wunderground v.1.15,2013-01-10 02:47:00,
2013-01-09 21:53:00,41.1,26.6,30.18,West,280,6.0,6.0,56,0.00,,,0.00,Wunderground v.1.15,2013-01-10 02:53:00,
2013-01-09 22:02:00,40.9,26.0,30.19,WNW,295,6.0,6.0,55,0.00,,,0.00,Wunderground v.1.15,2013-01-10 03:02:00,
2013-01-09 22:12:00,40.8,25.9,30.19,West,271,3.0,3.0,55,0.00,,,0.00,Wunderground v.1.15,2013-01-10 03:12:00,
2013-01-09 22:22:00,40.8,26.3,30.19,WNW,302,4.0,12.0,56,0.00,,,0.00,Wunderground v.1.15,2013-01-10 03:22:00,
2013-01-09 22:32:00,40.8,25.4,30.20,WNW,299,5.0,5.0,54,0.00,,,0.00,Wunderground v.1.15,2013-01-10 03:32:00,
2013-01-09 22:37:00,40.8,25.9,30.20,WSW,248,5.0,5.0,55,0.00,,,0.00,Wunderground v.1.15,2013-01-10 03:37:00,
2013-01-09 22:47:00,40.8,25.9,30.21,WNW,292,6.0,6.0,55,0.00,,,0.00,Wunderground v.1.15,2013-01-10 03:47:00,
2013-01-09 22:52:00,40.9,25.5,30.21,NW,311,5.0,8.0,54,0.00,,,0.00,Wunderground v.1.15,2013-01-10 03:52:00,
2013-01-09 23:02:00,40.8,25.4,30.22,WSW,239,5.0,5.0,54,0.00,,,0.00,Wunderground v.1.15,2013-01-10 04:02:00,
2013-01-09 23:08:00,40.6,25.7,30.22,West,270,4.0,5.0,55,0.00,,,0.00,Wunderground v.1.15,2013-01-10 04:08:00,
2013-01-09 23:17:00,40.9,25.1,30.23,West,263,7.0,7.0,53,0.00,,,0.00,Wunderground v.1.15,2013-01-10 04:17:00,
2013-01-09 23:23:00,40.8,25.0,30.23,WNW,299,5.0,6.0,53,0.00,,,0.00,Wunderground v.1.15,2013-01-10 04:23:00,
2013-01-09 23:32:00,40.6,24.8,30.24,West,272,4.0,10.0,53,0.00,,,0.00,Wunderground v.1.15,2013-01-10 04:32:00,
2013-01-09 23:38:00,40.6,25.2,30.24,WNW,291,4.0,6.0,54,0.00,,,0.00,Wunderground v.1.15,2013-01-10 04:38:00,
2013-01-09 23:47:00,40.6,25.2,30.25,WNW,298,3.0,6.0,54,0.00,,,0.00,Wunderground v.1.15,2013-01-10 04:47:00,
2013-01-09 23:53:00,40.6,25.2,30.25,WNW,285,4.0,5.0,54,0.00,,,0.00,Wunderground v.1.15,2013-01-10 04:53:00,